createdAt,value
2023-05-12T00:00:47.733Z,9.85
2023-05-12T00:03:15.662Z,8.50
2023-05-12T00:05:43.528Z,9.02
2023-05-12T00:08:11.585Z,9.50
2023-05-12T00:10:39.401Z,9.20
2023-05-12T00:13:08.648Z,9.05
2023-05-12T00:15:37.787Z,8.82
2023-05-12T00:18:05.712Z,7.55
2023-05-12T00:20:33.562Z,8.48
2023-05-12T00:23:01.365Z,8.48
2023-05-12T00:25:29.315Z,9.15
2023-05-12T00:27:57.175Z,9.40
2023-05-12T00:30:26.303Z,8.63
2023-05-12T00:32:54.512Z,10.30
2023-05-12T00:35:22.344Z,9.77
2023-05-12T00:37:50.171Z,10.57
2023-05-12T00:40:18.264Z,10.07
2023-05-12T00:42:46.412Z,10.27
2023-05-12T00:45:14.310Z,9.90
2023-05-12T00:47:43.606Z,9.40
2023-05-12T00:50:11.818Z,10.43
2023-05-12T00:52:39.690Z,11.52
2023-05-12T00:55:07.909Z,12.20
2023-05-12T00:57:35.834Z,12.52
2023-05-12T01:00:05.330Z,11.60
2023-05-12T01:02:35.467Z,13.05
2023-05-12T01:05:06.104Z,13.15
2023-05-12T01:07:34.337Z,11.60
2023-05-12T01:10:02.542Z,13.13
2023-05-12T01:12:34.644Z,12.68
2023-05-12T01:15:04.013Z,11.63
2023-05-12T01:17:34.291Z,12.00
2023-05-12T01:20:04.609Z,12.07
2023-05-12T01:22:34.222Z,12.48
2023-05-12T01:25:08.825Z,12.35
2023-05-12T01:27:39.657Z,12.20
2023-05-12T01:30:08.999Z,12.65
2023-05-12T01:32:37.355Z,12.57
2023-05-12T01:35:06.838Z,12.85
2023-05-12T01:37:37.158Z,12.57
2023-05-12T01:40:06.980Z,11.88
2023-05-12T01:42:34.849Z,10.77
2023-05-12T01:45:04.282Z,9.68
2023-05-12T01:47:32.560Z,9.32
2023-05-12T01:50:07.072Z,10.00
2023-05-12T01:52:34.897Z,11.35
2023-05-12T01:55:03.172Z,10.48
2023-05-12T01:57:37.080Z,10.70
2023-05-12T02:00:07.189Z,10.10
2023-05-12T02:02:43.043Z,11.27
2023-05-12T02:05:12.745Z,12.02
2023-05-12T02:07:41.945Z,11.00
2023-05-12T02:10:11.169Z,10.15
2023-05-12T02:12:39.159Z,9.82
2023-05-12T02:15:09.162Z,10.20
2023-05-12T02:17:40.186Z,10.65
2023-05-12T02:20:09.457Z,10.20
2023-05-12T02:22:37.698Z,10.57
2023-05-12T02:25:05.970Z,10.88
2023-05-12T02:27:33.811Z,10.05
2023-05-12T02:30:01.844Z,10.35
2023-05-12T02:32:32.690Z,9.88
2023-05-12T02:35:01.052Z,10.63
2023-05-12T02:37:29.189Z,11.00
2023-05-12T02:39:57.324Z,10.55
2023-05-12T02:42:28.877Z,10.20
2023-05-12T02:44:56.968Z,10.32
2023-05-12T02:47:24.832Z,9.60
2023-05-12T02:49:55.625Z,9.50
2023-05-12T02:52:23.519Z,9.15
2023-05-12T02:54:51.932Z,9.18
2023-05-12T02:57:19.795Z,9.43
2023-05-12T02:59:47.704Z,9.20
2023-05-12T03:02:15.670Z,8.35
2023-05-12T03:04:43.822Z,8.43
2023-05-12T03:07:13.387Z,8.52
2023-05-12T03:09:41.499Z,7.95
2023-05-12T03:12:09.581Z,7.82
2023-05-12T03:14:37.390Z,8.00
2023-05-12T03:17:05.453Z,7.60
2023-05-12T03:19:33.313Z,7.60
2023-05-12T03:22:01.147Z,7.15
2023-05-12T03:24:30.613Z,7.55
2023-05-12T03:26:58.959Z,9.38
2023-05-12T03:29:27.134Z,8.38
2023-05-12T03:31:55.009Z,7.35
2023-05-12T03:34:22.988Z,6.00
2023-05-12T03:36:51.009Z,5.88
2023-05-12T03:39:18.796Z,5.97
2023-05-12T03:41:47.995Z,5.47
2023-05-12T03:44:15.826Z,5.72
2023-05-12T03:46:44.028Z,5.78
2023-05-12T03:49:12.055Z,5.38
2023-05-12T03:51:40.148Z,6.50
2023-05-12T03:54:08.101Z,6.50
2023-05-12T03:56:35.885Z,6.72
2023-05-12T03:59:05.146Z,6.63
2023-05-12T04:01:33.331Z,6.60
2023-05-12T04:04:02.850Z,6.68
2023-05-12T04:06:32.213Z,6.40
2023-05-12T04:09:00.084Z,6.95
2023-05-12T04:11:28.100Z,5.90
2023-05-12T04:13:56.766Z,6.80
2023-05-12T04:16:26.017Z,11.20
2023-05-12T04:18:54.152Z,9.70
2023-05-12T04:21:21.935Z,11.05
2023-05-12T04:23:53.585Z,8.10
2023-05-12T04:26:22.331Z,8.57
2023-05-12T04:28:50.220Z,7.90
2023-05-12T04:31:19.099Z,7.53
2023-05-12T04:33:49.634Z,7.20
2023-05-12T04:36:17.563Z,6.57
2023-05-12T04:38:45.456Z,6.30
2023-05-12T04:41:13.354Z,5.80
2023-05-12T04:46:12.073Z,5.93
2023-05-12T04:48:43.176Z,5.53
2023-05-12T04:51:12.394Z,5.10
2023-05-12T04:53:40.184Z,5.90
2023-05-12T04:56:08.237Z,6.68
2023-05-12T04:58:39.399Z,5.57
2023-05-12T05:01:08.397Z,4.88
2023-05-12T05:03:36.451Z,5.30
2023-05-12T05:06:04.506Z,5.47
2023-05-12T05:08:34.601Z,5.05
2023-05-12T05:11:02.451Z,4.88
2023-05-12T05:13:31.630Z,4.53
2023-05-12T05:16:00.354Z,5.50
2023-05-12T05:18:29.222Z,5.40
2023-05-12T05:20:58.789Z,4.13
2023-05-12T05:23:29.159Z,4.35
2023-05-12T05:25:58.526Z,3.53
2023-05-12T05:28:28.013Z,4.18
2023-05-12T05:30:58.052Z,3.95
2023-05-12T05:33:25.950Z,4.15
2023-05-12T05:35:54.004Z,4.28
2023-05-12T05:38:22.247Z,4.70
2023-05-12T05:40:54.127Z,4.00
2023-05-12T05:43:25.724Z,4.00
2023-05-12T05:45:55.987Z,4.53
2023-05-12T05:48:24.152Z,3.88
2023-05-12T05:50:53.063Z,3.75
2023-05-12T05:53:23.144Z,3.40
2023-05-12T05:55:51.599Z,4.10
2023-05-12T05:58:19.521Z,3.63
2023-05-12T06:00:49.709Z,4.60
2023-05-12T06:03:17.718Z,6.18
2023-05-12T06:05:45.853Z,4.97
2023-05-12T06:08:13.793Z,4.05
2023-05-12T06:10:42.239Z,3.97
2023-05-12T06:13:10.124Z,4.72
2023-05-12T06:15:38.634Z,3.40
2023-05-12T06:18:08.003Z,4.03
2023-05-12T06:20:35.993Z,3.80
2023-05-12T06:23:03.875Z,3.30
2023-05-12T06:25:33.277Z,3.75
2023-05-12T06:28:02.097Z,3.97
2023-05-12T06:30:29.912Z,3.80
2023-05-12T06:32:57.848Z,3.60
2023-05-12T06:35:27.513Z,3.53
2023-05-12T06:37:55.328Z,3.80
2023-05-12T06:40:23.287Z,4.35
2023-05-12T06:42:51.257Z,4.60
2023-05-12T06:45:23.545Z,4.65
2023-05-12T06:47:52.482Z,4.70
2023-05-12T06:50:20.736Z,5.85
2023-05-12T06:52:54.631Z,6.10
2023-05-12T06:55:22.987Z,6.03
2023-05-12T06:57:55.586Z,6.20
2023-05-12T07:00:24.173Z,6.25
2023-05-12T07:02:52.229Z,5.97
2023-05-12T07:05:21.330Z,5.75
2023-05-12T07:07:49.364Z,5.65
2023-05-12T07:10:18.699Z,5.82
2023-05-12T07:12:46.592Z,6.18
2023-05-12T07:15:14.463Z,6.50
2023-05-12T07:17:43.980Z,8.05
2023-05-12T07:20:12.045Z,8.15
2023-05-12T07:22:39.914Z,6.38
2023-05-12T07:25:08.249Z,6.57
2023-05-12T07:27:38.093Z,6.18
2023-05-12T07:30:08.356Z,6.35
2023-05-12T07:32:38.022Z,5.47
2023-05-12T07:35:06.482Z,6.18
2023-05-12T07:37:34.279Z,7.32
2023-05-12T07:40:02.335Z,5.18
2023-05-12T07:42:30.465Z,5.68
2023-05-12T07:45:01.406Z,5.28
2023-05-12T07:47:29.774Z,5.00
2023-05-12T07:49:58.066Z,5.55
2023-05-12T07:52:27.397Z,5.30
2023-05-12T07:54:56.843Z,4.30
2023-05-12T07:57:24.743Z,4.80
2023-05-12T07:59:55.379Z,5.40
2023-05-12T08:02:24.689Z,5.00
2023-05-12T08:04:54.036Z,4.95
2023-05-12T08:07:22.523Z,4.80
2023-05-12T08:09:51.503Z,5.10
2023-05-12T08:12:19.322Z,4.78
2023-05-12T08:14:47.128Z,4.50
2023-05-12T08:17:15.103Z,3.75
2023-05-12T08:19:44.394Z,3.38
2023-05-12T08:22:14.003Z,3.40
2023-05-12T08:24:41.841Z,3.58
2023-05-12T08:27:10.406Z,3.38
2023-05-12T08:29:38.271Z,4.10
2023-05-12T08:32:06.643Z,3.83
2023-05-12T08:34:34.530Z,3.95
2023-05-12T08:37:05.459Z,3.50
2023-05-12T08:39:35.152Z,4.80
2023-05-12T08:42:10.833Z,4.57
2023-05-12T08:44:39.033Z,5.20
2023-05-12T08:47:07.518Z,4.95
2023-05-12T08:49:36.664Z,4.95
2023-05-12T08:52:06.697Z,6.15
2023-05-12T08:54:39.957Z,4.45
2023-05-12T08:57:13.632Z,5.93
2023-05-12T08:59:44.870Z,5.80
2023-05-12T09:02:13.131Z,5.28
2023-05-12T09:04:41.267Z,5.53
2023-05-12T09:07:11.383Z,5.53
2023-05-12T09:09:39.564Z,4.63
2023-05-12T09:12:10.540Z,5.45
2023-05-12T09:14:40.171Z,5.60
2023-05-12T09:17:08.058Z,5.45
2023-05-12T09:19:35.925Z,4.85
2023-05-12T09:22:03.759Z,4.40
2023-05-12T09:24:37.067Z,4.93
2023-05-12T09:27:05.359Z,5.78
2023-05-12T09:29:35.853Z,4.90
2023-05-12T09:32:07.948Z,4.50
2023-05-12T09:34:38.646Z,5.13
2023-05-12T09:37:07.428Z,4.80
2023-05-12T09:39:37.584Z,5.75
2023-05-12T09:42:11.395Z,4.47
2023-05-12T09:44:39.941Z,4.23
2023-05-12T09:47:08.164Z,3.42
2023-05-12T09:49:36.467Z,4.55
2023-05-12T09:52:05.757Z,4.32
2023-05-12T09:54:34.590Z,3.67
2023-05-12T09:57:05.022Z,3.95
2023-05-12T09:59:33.892Z,4.32
2023-05-12T10:02:02.118Z,4.47
2023-05-12T10:04:31.112Z,4.50
2023-05-12T10:06:59.346Z,4.90
2023-05-12T10:09:30.008Z,5.20
2023-05-12T10:11:59.153Z,4.00
2023-05-12T10:14:28.574Z,3.10
2023-05-12T10:16:57.115Z,3.25
2023-05-12T10:19:26.386Z,3.00
2023-05-12T10:21:54.654Z,2.70
2023-05-12T10:24:22.980Z,3.67
2023-05-12T10:26:51.522Z,4.40
2023-05-12T10:29:19.575Z,3.70
2023-05-12T10:31:49.461Z,3.80
2023-05-12T10:34:18.275Z,3.90
2023-05-12T10:36:47.948Z,4.00
2023-05-12T10:39:16.676Z,4.20
2023-05-12T10:41:44.735Z,3.90
2023-05-12T10:44:13.477Z,4.50
2023-05-12T10:46:41.589Z,3.88
2023-05-12T10:49:13.114Z,4.03
2023-05-12T10:51:48.533Z,3.65
2023-05-12T10:54:20.476Z,3.70
2023-05-12T10:56:49.042Z,4.60
2023-05-12T10:59:19.034Z,8.90
2023-05-12T11:01:58.940Z,7.70
2023-05-12T11:04:40.740Z,5.25
2023-05-12T11:07:09.927Z,4.45
2023-05-12T11:09:43.421Z,4.43
2023-05-12T11:12:21.609Z,4.70
2023-05-12T11:14:49.621Z,4.32
2023-05-12T11:17:17.898Z,4.70
2023-05-12T11:19:48.843Z,3.55
2023-05-12T11:22:18.533Z,3.20
2023-05-12T11:24:47.286Z,3.20
2023-05-12T11:27:15.763Z,3.65
2023-05-12T11:29:45.171Z,3.80
2023-05-12T11:32:13.501Z,4.60
2023-05-12T11:34:41.575Z,4.32
2023-05-12T11:37:11.538Z,4.90
2023-05-12T11:39:39.478Z,5.15
2023-05-12T11:42:13.440Z,5.10
2023-05-12T11:44:47.662Z,4.78
2023-05-12T11:47:16.377Z,5.03
2023-05-12T11:49:49.718Z,4.93
2023-05-12T11:52:19.611Z,5.20
2023-05-12T11:54:50.676Z,4.53
2023-05-12T11:57:26.032Z,5.40
2023-05-12T11:59:57.933Z,4.60
2023-05-12T12:02:27.849Z,5.00
2023-05-12T12:04:57.243Z,5.10
2023-05-12T12:07:33.951Z,5.40
2023-05-12T12:10:12.012Z,5.35
2023-05-12T12:12:40.153Z,4.25
2023-05-12T12:15:09.964Z,4.88
2023-05-12T12:17:38.006Z,4.45
2023-05-12T12:20:08.354Z,4.68
2023-05-12T12:22:38.936Z,4.53
2023-05-12T12:25:10.808Z,4.43
2023-05-12T12:27:39.800Z,4.68
2023-05-12T12:30:08.819Z,4.47
2023-05-12T12:32:37.596Z,4.25
2023-05-12T12:35:08.202Z,4.57
2023-05-12T12:37:36.061Z,4.55
2023-05-12T12:40:10.005Z,6.07
2023-05-12T12:42:38.531Z,4.97
2023-05-12T12:45:08.538Z,5.47
2023-05-12T12:47:36.870Z,5.00
2023-05-12T12:50:05.323Z,4.13
2023-05-12T12:52:34.941Z,4.45
2023-05-12T12:55:05.233Z,4.03
2023-05-12T12:57:38.834Z,3.70
2023-05-12T13:00:08.921Z,3.80
2023-05-12T13:02:39.031Z,3.53
2023-05-12T13:05:08.896Z,4.47
2023-05-12T13:07:36.749Z,4.00
2023-05-12T13:10:04.714Z,3.40
2023-05-12T13:12:32.907Z,2.50
2023-05-12T13:15:03.296Z,2.50
2023-05-12T13:17:34.276Z,1.98
2023-05-12T13:20:02.274Z,3.00
2023-05-12T13:22:31.984Z,2.78
2023-05-12T13:25:01.675Z,2.60
2023-05-12T13:27:29.929Z,2.60
2023-05-12T13:29:58.228Z,2.55
2023-05-12T13:32:27.525Z,3.20
2023-05-12T13:34:55.457Z,3.40
2023-05-12T13:37:23.616Z,3.13
2023-05-12T13:39:51.502Z,2.75
2023-05-12T13:42:19.394Z,2.95
2023-05-12T13:44:47.625Z,3.78
2023-05-12T13:47:15.472Z,2.95
2023-05-12T13:49:44.773Z,3.47
2023-05-12T13:52:13.068Z,3.45
2023-05-12T13:54:41.455Z,3.38
2023-05-12T13:57:09.413Z,3.55
2023-05-12T13:59:37.451Z,3.45
2023-05-12T14:02:09.412Z,3.85
2023-05-12T14:04:37.686Z,3.95
2023-05-12T14:07:08.573Z,3.60
2023-05-12T14:09:36.940Z,3.53
2023-05-12T14:12:05.420Z,3.30
2023-05-12T14:14:33.401Z,3.10
2023-05-12T14:17:01.490Z,3.22
2023-05-12T14:19:29.391Z,2.92
2023-05-12T14:21:57.385Z,2.50
2023-05-12T14:24:28.991Z,3.22
2023-05-12T14:26:58.187Z,4.40
2023-05-12T14:29:26.122Z,4.90
2023-05-12T14:31:54.393Z,5.00
2023-05-12T14:34:24.973Z,5.57
2023-05-12T14:36:52.858Z,6.47
2023-05-12T14:39:20.899Z,7.38
2023-05-12T14:41:50.179Z,6.45
2023-05-12T14:44:18.061Z,7.55
2023-05-12T14:46:47.480Z,7.88
2023-05-12T14:49:20.654Z,8.55
2023-05-12T14:51:51.386Z,8.27
2023-05-12T14:54:25.770Z,8.07
2023-05-12T14:56:56.674Z,8.00
2023-05-12T14:59:24.702Z,7.85
2023-05-12T15:01:52.787Z,7.32
2023-05-12T15:04:22.507Z,8.50
2023-05-12T15:06:50.412Z,8.57
2023-05-12T15:09:18.430Z,8.80
2023-05-12T15:11:49.404Z,8.52
2023-05-12T15:14:21.136Z,7.88
2023-05-12T15:16:50.687Z,8.60
2023-05-12T15:19:21.471Z,8.05
2023-05-12T15:21:49.526Z,9.05
2023-05-12T15:24:17.556Z,9.45
2023-05-12T15:26:46.016Z,8.65
2023-05-12T15:29:14.044Z,10.15
2023-05-12T15:31:43.372Z,7.20
2023-05-12T15:34:11.297Z,7.85
2023-05-12T15:36:39.230Z,7.25
2023-05-12T15:39:07.260Z,6.82
2023-05-12T15:41:35.161Z,6.80
2023-05-12T15:44:03.086Z,6.35
2023-05-12T15:46:31.135Z,6.93
2023-05-12T15:49:00.905Z,7.03
2023-05-12T15:51:29.884Z,6.70
2023-05-12T15:53:57.783Z,5.80
2023-05-12T15:56:25.832Z,6.72
2023-05-12T15:58:53.986Z,6.55
2023-05-12T16:01:22.686Z,9.13
2023-05-12T16:03:50.923Z,6.13
2023-05-12T16:06:20.357Z,6.32
2023-05-12T16:08:48.509Z,6.07
2023-05-12T16:11:17.149Z,6.10
2023-05-12T16:13:45.002Z,6.43
2023-05-12T16:16:13.017Z,6.03
2023-05-12T16:18:41.366Z,5.40
2023-05-12T16:21:09.614Z,6.10
2023-05-12T16:23:39.067Z,6.10
2023-05-12T16:26:07.314Z,5.70
2023-05-12T16:28:35.548Z,5.70
2023-05-12T16:31:03.768Z,5.50
2023-05-12T16:33:31.730Z,5.20
2023-05-12T16:35:59.665Z,4.70
2023-05-12T16:38:27.573Z,5.65
2023-05-12T16:40:56.908Z,5.88
2023-05-12T16:43:24.876Z,6.00
2023-05-12T16:46:00.245Z,5.78
2023-05-12T16:48:33.483Z,6.53
2023-05-12T16:51:02.518Z,5.80
2023-05-12T16:53:31.135Z,5.35
2023-05-12T16:56:00.677Z,5.55
2023-05-12T16:58:31.284Z,7.50
2023-05-12T17:00:59.332Z,9.80
2023-05-12T17:03:29.439Z,7.50
2023-05-12T17:05:57.431Z,5.00
2023-05-12T17:08:26.922Z,5.75
2023-05-12T17:10:54.821Z,7.95
2023-05-12T17:13:25.646Z,7.25
2023-05-12T17:15:53.807Z,8.00
2023-05-12T17:18:22.495Z,7.75
2023-05-12T17:20:50.653Z,7.45
2023-05-12T17:23:20.484Z,8.80
2023-05-12T17:25:48.448Z,6.00
2023-05-12T17:28:16.442Z,9.50
2023-05-12T17:30:46.355Z,6.88
2023-05-12T17:33:17.279Z,7.85
2023-05-12T17:35:53.565Z,5.25
2023-05-12T17:38:33.061Z,5.53
2023-05-12T17:41:00.974Z,5.47
2023-05-12T17:43:29.756Z,6.18
2023-05-12T17:46:00.571Z,5.80
2023-05-12T17:48:31.301Z,5.47
2023-05-12T17:50:59.276Z,5.78
2023-05-12T17:53:27.318Z,5.07
2023-05-12T17:55:56.886Z,5.20
2023-05-12T17:58:26.272Z,4.88
2023-05-12T18:00:54.496Z,5.18
2023-05-12T18:03:24.308Z,4.68
2023-05-12T18:05:52.688Z,5.00
2023-05-12T18:08:21.694Z,5.13
2023-05-12T18:10:50.010Z,5.35
2023-05-12T18:13:18.075Z,4.75
2023-05-12T18:15:46.165Z,7.15
2023-05-12T18:18:14.812Z,5.40
2023-05-12T18:20:44.229Z,5.32
2023-05-12T18:23:12.171Z,5.00
2023-05-12T18:25:40.457Z,5.18
2023-05-12T18:28:08.743Z,5.20
2023-05-12T18:30:36.784Z,5.10
2023-05-12T18:33:05.011Z,5.53
2023-05-12T18:35:33.077Z,5.90
2023-05-12T18:38:02.854Z,5.97
2023-05-12T18:40:30.812Z,6.43
2023-05-12T18:42:59.670Z,7.10
2023-05-12T18:45:27.649Z,5.97
2023-05-12T18:47:55.759Z,5.78
2023-05-12T18:50:23.723Z,5.28
2023-05-12T18:52:51.621Z,5.68
2023-05-12T18:55:21.580Z,5.50
2023-05-12T18:57:50.189Z,5.50
2023-05-12T19:00:18.464Z,5.90
2023-05-12T19:02:48.096Z,5.20
2023-05-12T19:05:16.092Z,5.05
2023-05-12T19:07:44.111Z,5.65
2023-05-12T19:10:12.244Z,5.60
2023-05-12T19:12:43.059Z,5.40
2023-05-12T19:15:13.022Z,5.30
2023-05-12T19:17:40.923Z,4.88
2023-05-12T19:20:10.144Z,6.13
2023-05-12T19:22:38.195Z,5.00
2023-05-12T19:25:07.054Z,5.20
2023-05-12T19:27:35.432Z,5.05
2023-05-12T19:30:06.019Z,6.28
2023-05-12T19:32:34.270Z,5.43
2023-05-12T19:35:02.590Z,6.47
2023-05-12T19:37:30.569Z,7.15
2023-05-12T19:39:59.296Z,6.13
2023-05-12T19:42:27.770Z,5.85
2023-05-12T19:44:57.019Z,5.32
2023-05-12T19:47:26.629Z,5.32
2023-05-12T19:49:56.410Z,5.63
2023-05-12T19:52:25.607Z,6.15
2023-05-12T19:54:53.739Z,5.13
2023-05-12T19:57:22.737Z,5.60
2023-05-12T19:59:53.448Z,5.93
2023-05-12T20:02:28.438Z,6.03
2023-05-12T20:04:59.560Z,5.60
2023-05-12T20:07:27.510Z,5.93
2023-05-12T20:09:57.096Z,5.85
2023-05-12T20:12:26.334Z,6.13
2023-05-12T20:14:56.253Z,5.68
2023-05-12T20:17:24.153Z,5.47
2023-05-12T20:19:54.119Z,5.20
2023-05-12T20:22:23.832Z,5.55
2023-05-12T20:24:53.442Z,5.30
2023-05-12T20:27:21.492Z,5.63
2023-05-12T20:29:49.960Z,5.35
2023-05-12T20:32:17.874Z,5.53
2023-05-12T20:34:45.699Z,5.93
2023-05-12T20:37:14.067Z,5.82
2023-05-12T20:39:43.303Z,6.28
2023-05-12T20:42:11.678Z,6.72
2023-05-12T20:44:39.544Z,5.70
2023-05-12T20:47:08.905Z,5.88
2023-05-12T20:49:36.885Z,4.95
2023-05-12T20:52:06.504Z,6.03
2023-05-12T20:54:35.480Z,5.82
2023-05-12T20:57:07.298Z,6.50
2023-05-12T20:59:35.485Z,5.85
2023-05-12T21:02:03.750Z,6.18
2023-05-12T21:04:31.660Z,6.43
2023-05-12T21:06:59.574Z,6.90
2023-05-12T21:09:28.628Z,6.63
2023-05-12T21:11:56.487Z,6.75
2023-05-12T21:14:26.328Z,6.75
2023-05-12T21:16:54.317Z,6.35
2023-05-12T21:19:22.407Z,7.10
2023-05-12T21:21:50.397Z,7.32
2023-05-12T21:24:18.296Z,7.55
2023-05-12T21:26:46.844Z,7.18
2023-05-12T21:29:14.866Z,6.75
2023-05-12T21:31:44.161Z,7.78
2023-05-12T21:34:12.320Z,8.23
2023-05-12T21:36:40.331Z,6.90
2023-05-12T21:39:08.281Z,7.70
2023-05-12T21:41:38.429Z,7.05
2023-05-12T21:44:06.382Z,7.25
2023-05-12T21:46:35.112Z,7.13
2023-05-12T21:49:04.421Z,7.00
2023-05-12T21:51:33.209Z,7.88
2023-05-12T21:54:02.192Z,7.57
2023-05-12T21:56:30.034Z,7.95
2023-05-12T21:58:58.249Z,7.82
2023-05-12T22:01:26.134Z,8.15
2023-05-12T22:03:54.552Z,7.05
2023-05-12T22:06:23.821Z,8.07
2023-05-12T22:08:51.632Z,7.35
2023-05-12T22:11:20.312Z,7.68
2023-05-12T22:13:48.363Z,7.50
2023-05-12T22:16:16.330Z,8.25
2023-05-12T22:18:44.515Z,9.18
2023-05-12T22:21:12.659Z,7.93
2023-05-12T22:23:42.866Z,8.18
2023-05-12T22:26:10.907Z,8.50
2023-05-12T22:28:38.896Z,8.77
2023-05-12T22:31:06.929Z,9.02
2023-05-12T22:33:35.114Z,8.40
2023-05-12T22:36:03.259Z,7.72
2023-05-12T22:38:31.336Z,8.90
2023-05-12T22:41:00.894Z,9.40
2023-05-12T22:43:28.788Z,8.93
2023-05-12T22:45:57.079Z,9.07
2023-05-12T22:48:24.998Z,8.80
2023-05-12T22:50:54.641Z,9.25
2023-05-12T22:53:22.734Z,10.23
2023-05-12T22:55:50.722Z,10.45
2023-05-12T22:58:19.991Z,12.30
2023-05-12T23:00:47.986Z,9.00
2023-05-12T23:03:15.889Z,18.75
2023-05-12T23:05:43.978Z,10.00
2023-05-12T23:08:11.829Z,13.13
2023-05-12T23:10:39.664Z,10.43
2023-05-12T23:13:07.635Z,10.48
2023-05-12T23:15:36.873Z,9.95
2023-05-12T23:18:04.991Z,10.85
2023-05-12T23:20:33.299Z,9.93
2023-05-12T23:23:01.403Z,10.30
2023-05-12T23:25:29.255Z,10.00
2023-05-12T23:27:57.133Z,9.65
2023-05-12T23:30:25.086Z,10.25
2023-05-12T23:32:54.401Z,10.70
2023-05-12T23:35:22.521Z,10.23
2023-05-12T23:37:50.349Z,9.60
2023-05-12T23:40:18.700Z,9.70
2023-05-12T23:42:47.279Z,9.65
2023-05-12T23:45:16.045Z,9.30
2023-05-12T23:47:44.208Z,9.85
2023-05-12T23:50:13.614Z,9.75
2023-05-12T23:52:41.516Z,8.88
2023-05-12T23:55:09.726Z,8.50
2023-05-12T23:57:38.884Z,9.63
